Terminal Aerodrome Forecast
Issued by NWS

Current Version | Previous Version | Graphics & Text | Print | Product List | Glossary Off
Versions: 1 2 3 4 5 6 7 8 9 10 11 12 13 14 15 16

000
FTUS41 KPBZ 062320
TAFMGW
TAF
KMGW 062320Z 0700/0724 VRB03KT P6SM SKC
     FM070600 VRB02KT 4SM BR SKC
     FM071000 VRB01KT 2SM BR SKC
     FM071300 VRB03KT P6SM SCT250=

USA.gov is the U.S. government's official web portal to all federal, state and local government web resources and services.